createdAt,value
2018-12-12T00:00:35.188Z,74.33
2018-12-12T00:03:04.506Z,73.84
2018-12-12T00:05:33.877Z,73.33
2018-12-12T00:10:53.976Z,73.47
2018-12-12T00:13:21.232Z,73.39
2018-12-12T00:15:48.700Z,73.54
2018-12-12T00:18:16.356Z,72.44
2018-12-12T00:20:43.576Z,73.14
2018-12-12T00:23:10.792Z,72.67
2018-12-12T00:25:38.025Z,72.23
2018-12-12T00:28:05.433Z,73.05
2018-12-12T00:30:34.471Z,72.02
2018-12-12T00:33:01.887Z,72.45
2018-12-12T00:35:31.179Z,72.84
2018-12-12T00:37:58.386Z,72.16
2018-12-12T00:40:25.588Z,72.31
2018-12-12T00:42:55.896Z,72.98
2018-12-12T00:45:25.136Z,72.71
2018-12-12T00:47:55.768Z,72.83
2018-12-12T00:50:24.161Z,72.56
2018-12-12T00:52:51.356Z,72.61
2018-12-12T00:55:18.631Z,73.91
2018-12-12T00:57:46.096Z,73.48
2018-12-12T01:00:13.305Z,73.48
2018-12-12T01:02:40.529Z,73.02
2018-12-12T01:05:07.810Z,72.51
2018-12-12T01:07:35.072Z,72.13
2018-12-12T01:10:02.559Z,72.75
2018-12-12T01:12:30.702Z,74.43
2018-12-12T01:14:57.917Z,74.19
2018-12-12T01:17:26.155Z,74.49
2018-12-12T01:19:53.668Z,73.68
2018-12-12T01:22:20.937Z,74.58
2018-12-12T01:24:48.162Z,74.62
2018-12-12T01:27:15.396Z,74.34
2018-12-12T01:29:42.640Z,74.42
2018-12-12T01:32:10.004Z,73.75
2018-12-12T01:34:37.229Z,73.39
2018-12-12T01:37:04.784Z,73.12
2018-12-12T01:39:32.209Z,73.41
2018-12-12T01:41:59.403Z,72.52
2018-12-12T01:44:26.601Z,73.04
2018-12-12T01:46:53.851Z,72.56
2018-12-12T01:49:22.100Z,71.56
2018-12-12T01:51:49.312Z,72.27
2018-12-12T01:54:16.556Z,72.20
2018-12-12T01:56:43.764Z,72.43
2018-12-12T01:59:10.975Z,71.00
2018-12-12T02:01:38.377Z,68.11
2018-12-12T02:04:06.735Z,68.18
2018-12-12T02:06:33.940Z,67.81
2018-12-12T02:09:01.371Z,66.16
2018-12-12T02:11:30.592Z,65.87
2018-12-12T02:13:57.793Z,65.14
2018-12-12T02:16:25.568Z,64.38
2018-12-12T02:18:54.234Z,64.51
2018-12-12T02:21:21.454Z,64.89
2018-12-12T02:23:48.776Z,64.69
2018-12-12T02:26:16.004Z,64.48
2018-12-12T02:28:43.232Z,63.48
2018-12-12T02:31:10.731Z,64.28
2018-12-12T02:33:37.970Z,64.65
2018-12-12T02:36:05.207Z,64.73
2018-12-12T02:38:33.464Z,64.78
2018-12-12T02:41:00.676Z,65.55
2018-12-12T02:43:27.907Z,66.12
2018-12-12T02:45:57.173Z,66.08
2018-12-12T02:48:24.549Z,66.22
2018-12-12T02:50:51.765Z,66.17
2018-12-12T02:53:19.018Z,66.94
2018-12-12T02:55:46.349Z,66.04
2018-12-12T02:58:13.696Z,66.54
2018-12-12T03:00:40.940Z,67.20
2018-12-12T03:03:08.169Z,66.48
2018-12-12T03:05:35.359Z,66.68
2018-12-12T03:08:02.738Z,66.26
2018-12-12T03:10:29.960Z,67.25
2018-12-12T03:12:57.310Z,67.99
2018-12-12T03:15:24.517Z,67.59
2018-12-12T03:17:51.793Z,68.01
2018-12-12T03:20:19.064Z,68.18
2018-12-12T03:22:46.282Z,68.64
2018-12-12T03:25:14.525Z,68.35
2018-12-12T03:27:41.732Z,68.73
2018-12-12T03:30:09.124Z,68.92
2018-12-12T03:32:37.538Z,68.19
2018-12-12T03:35:04.876Z,68.16
2018-12-12T03:37:32.209Z,67.12
2018-12-12T03:39:59.881Z,66.49
2018-12-12T03:42:27.828Z,66.52
2018-12-12T03:44:55.044Z,66.71
2018-12-12T03:47:22.256Z,67.72
2018-12-12T03:49:49.473Z,68.10
2018-12-12T03:52:16.801Z,68.06
2018-12-12T03:54:43.996Z,68.31
2018-12-12T03:57:11.213Z,68.09
2018-12-12T03:59:39.424Z,68.74
2018-12-12T04:02:06.676Z,69.15
2018-12-12T04:04:33.884Z,69.06
2018-12-12T04:07:01.162Z,68.43
2018-12-12T04:09:28.410Z,69.49
2018-12-12T04:11:55.621Z,68.80
2018-12-12T04:14:22.819Z,69.40
2018-12-12T04:16:50.047Z,69.01
2018-12-12T04:19:17.400Z,69.15
2018-12-12T04:21:46.732Z,69.60
2018-12-12T04:24:13.928Z,69.45
2018-12-12T04:26:41.134Z,69.52
2018-12-12T04:29:08.345Z,70.08
2018-12-12T04:31:35.552Z,69.61
2018-12-12T04:34:02.819Z,69.70
2018-12-12T04:36:30.036Z,70.52
2018-12-12T04:38:57.274Z,69.74
2018-12-12T04:41:24.592Z,69.86
2018-12-12T04:43:51.801Z,70.26
2018-12-12T04:46:19.018Z,69.91
2018-12-12T04:49:03.196Z,71.18
2018-12-12T04:51:30.397Z,70.69
2018-12-12T04:53:57.730Z,70.95
2018-12-12T04:56:24.968Z,70.64
2018-12-12T04:58:53.032Z,69.82
2018-12-12T05:01:20.231Z,69.83
2018-12-12T05:03:47.474Z,69.64
2018-12-12T05:06:14.779Z,68.88
2018-12-12T05:08:42.428Z,68.61
2018-12-12T05:11:09.637Z,69.60
2018-12-12T05:13:36.852Z,69.62
2018-12-12T05:16:04.173Z,69.07
2018-12-12T05:18:31.392Z,68.97
2018-12-12T05:20:58.592Z,69.34
2018-12-12T05:23:25.799Z,69.32
2018-12-12T05:25:52.999Z,69.48
2018-12-12T05:28:20.225Z,69.23
2018-12-12T05:30:47.448Z,69.64
2018-12-12T05:33:14.685Z,69.10
2018-12-12T05:35:41.904Z,69.72
2018-12-12T05:38:09.189Z,69.77
2018-12-12T05:40:38.772Z,69.40
2018-12-12T05:43:05.985Z,70.04
2018-12-12T05:45:33.532Z,70.40
2018-12-12T05:48:17.684Z,70.29
2018-12-12T05:50:44.883Z,70.62
2018-12-12T05:53:12.671Z,70.79
2018-12-12T05:55:40.501Z,71.63
2018-12-12T05:58:07.712Z,71.51
2018-12-12T06:00:35.853Z,71.35
2018-12-12T06:03:03.108Z,71.71
2018-12-12T06:05:30.320Z,71.99
2018-12-12T06:07:57.532Z,71.89
2018-12-12T06:10:24.748Z,71.96
2018-12-12T06:12:51.956Z,71.46
2018-12-12T06:15:19.175Z,72.38
2018-12-12T06:18:04.621Z,73.14
2018-12-12T06:20:32.009Z,72.77
2018-12-12T06:23:00.079Z,74.11
2018-12-12T06:25:27.461Z,74.30
2018-12-12T06:27:54.672Z,74.45
2018-12-12T06:30:21.895Z,74.64
2018-12-12T06:32:49.145Z,74.94
2018-12-12T06:35:16.371Z,75.59
2018-12-12T06:37:43.596Z,75.34
2018-12-12T06:40:10.901Z,74.87
2018-12-12T06:42:40.143Z,74.97
2018-12-12T06:45:07.473Z,74.69
2018-12-12T06:47:34.695Z,75.79
2018-12-12T06:50:03.353Z,75.53
2018-12-12T06:52:30.572Z,76.06
2018-12-12T06:54:57.772Z,76.23
2018-12-12T06:57:25.403Z,76.29
2018-12-12T06:59:52.703Z,76.29
2018-12-12T07:02:19.948Z,75.74
2018-12-12T07:04:47.192Z,76.49
2018-12-12T07:07:14.744Z,75.83
2018-12-12T07:09:42.064Z,75.93
2018-12-12T07:12:09.288Z,76.61
2018-12-12T07:14:36.488Z,75.80
2018-12-12T07:17:03.708Z,76.56
2018-12-12T07:19:30.908Z,75.47
2018-12-12T07:21:58.124Z,76.33
2018-12-12T07:24:26.436Z,75.85
2018-12-12T07:26:53.636Z,76.09
2018-12-12T07:29:20.960Z,75.67
2018-12-12T07:31:48.176Z,76.42
2018-12-12T07:37:08.280Z,75.94
2018-12-12T07:39:35.528Z,75.56
2018-12-12T07:42:02.872Z,77.05
2018-12-12T07:44:48.869Z,76.64
2018-12-12T07:47:18.113Z,76.46
2018-12-12T07:49:47.328Z,75.96
2018-12-12T07:52:35.677Z,76.72
2018-12-12T07:55:04.644Z,76.84
2018-12-12T07:57:31.862Z,76.66
2018-12-12T07:59:59.180Z,76.92
2018-12-12T08:02:26.500Z,77.05
2018-12-12T08:04:53.712Z,76.83
2018-12-12T08:07:20.928Z,76.79
2018-12-12T08:09:48.168Z,76.82
2018-12-12T08:12:15.400Z,76.95
2018-12-12T08:14:42.628Z,77.04
2018-12-12T08:17:10.184Z,76.56
2018-12-12T08:19:37.424Z,76.31
2018-12-12T08:22:04.682Z,77.32
2018-12-12T08:24:32.204Z,76.78
2018-12-12T08:26:59.549Z,77.48
2018-12-12T08:29:26.914Z,77.25
2018-12-12T08:31:55.548Z,77.20
2018-12-12T08:34:23.893Z,77.90
2018-12-12T08:36:51.125Z,76.77
2018-12-12T08:39:18.498Z,76.69
2018-12-12T08:41:45.817Z,78.05
2018-12-12T08:44:13.020Z,77.86
2018-12-12T08:46:40.484Z,77.45
2018-12-12T08:49:08.258Z,77.30
2018-12-12T08:51:35.652Z,77.52
2018-12-12T08:54:04.336Z,77.60
2018-12-12T08:56:31.540Z,77.94
2018-12-12T08:58:58.739Z,76.91
2018-12-12T09:01:26.332Z,76.93
2018-12-12T09:03:53.553Z,76.65
2018-12-12T09:06:20.906Z,77.42
2018-12-12T09:08:48.169Z,76.91
2018-12-12T09:11:15.376Z,76.12
2018-12-12T09:13:42.580Z,77.65
2018-12-12T09:16:09.817Z,76.77
2018-12-12T09:18:38.380Z,76.54
2018-12-12T09:21:05.607Z,76.46
2018-12-12T09:23:32.960Z,76.36
2018-12-12T09:26:00.176Z,76.19
2018-12-12T09:28:27.381Z,75.73
2018-12-12T09:30:56.708Z,76.28
2018-12-12T09:33:26.305Z,76.68
2018-12-12T09:35:55.656Z,76.79
2018-12-12T09:38:22.903Z,75.86
2018-12-12T09:40:50.265Z,76.29
2018-12-12T09:43:18.710Z,76.17
2018-12-12T09:45:46.152Z,75.12
2018-12-12T09:48:19.153Z,75.04
2018-12-12T09:50:42.840Z,75.68
2018-12-12T09:53:12.053Z,75.33
2018-12-12T09:55:40.399Z,75.48
2018-12-12T09:58:07.849Z,75.77
2018-12-12T10:00:35.076Z,75.61
2018-12-12T10:03:02.278Z,75.13
2018-12-12T10:05:29.688Z,75.74
2018-12-12T10:07:56.884Z,75.52
2018-12-12T10:10:24.100Z,75.89
2018-12-12T10:12:52.120Z,76.27
2018-12-12T10:15:19.338Z,76.33
2018-12-12T10:17:46.552Z,75.57
2018-12-12T10:20:13.772Z,75.90
2018-12-12T10:22:40.972Z,75.82
2018-12-12T10:25:09.300Z,76.48
2018-12-12T10:27:36.760Z,76.17
2018-12-12T10:30:04.160Z,76.28
2018-12-12T10:32:31.426Z,76.25
2018-12-12T10:34:58.804Z,75.96
2018-12-12T10:37:26.345Z,75.34
2018-12-12T10:39:53.544Z,74.99
2018-12-12T10:42:20.886Z,75.19
2018-12-12T10:44:48.142Z,75.08
2018-12-12T10:47:16.704Z,74.42
2018-12-12T10:49:45.392Z,73.50
2018-12-12T10:52:12.720Z,74.03
2018-12-12T10:54:42.117Z,74.30
2018-12-12T10:57:10.380Z,73.72
2018-12-12T10:59:37.577Z,73.30
2018-12-12T11:02:10.593Z,73.10
2018-12-12T11:04:37.796Z,72.18
2018-12-12T11:07:06.056Z,71.54
2018-12-12T11:09:33.304Z,71.50
2018-12-12T11:12:00.524Z,71.90
2018-12-12T11:14:28.741Z,72.01
2018-12-12T11:16:59.515Z,71.99
2018-12-12T11:19:26.800Z,71.69
2018-12-12T11:21:54.020Z,71.93
2018-12-12T11:24:21.236Z,72.08
2018-12-12T11:26:50.539Z,71.01
2018-12-12T11:29:18.818Z,70.52
2018-12-12T11:31:46.028Z,71.24
2018-12-12T11:34:13.227Z,70.25
2018-12-12T11:36:40.444Z,70.64
2018-12-12T11:39:07.697Z,70.48
2018-12-12T11:41:36.960Z,70.06
2018-12-12T11:44:05.317Z,68.68
2018-12-12T11:46:33.581Z,68.51
2018-12-12T11:49:00.789Z,68.36
2018-12-12T11:51:29.104Z,68.85
2018-12-12T11:53:56.436Z,68.22
2018-12-12T11:56:23.668Z,68.47
2018-12-12T11:58:50.868Z,68.23
2018-12-12T12:01:18.112Z,68.78
2018-12-12T12:03:45.332Z,68.82
2018-12-12T12:06:12.552Z,67.76
2018-12-12T12:08:39.755Z,68.51
2018-12-12T12:11:06.972Z,70.01
2018-12-12T12:13:36.233Z,69.03
2018-12-12T12:16:03.460Z,69.33
2018-12-12T12:18:30.653Z,70.80
2018-12-12T12:20:57.877Z,69.96
2018-12-12T12:23:25.106Z,70.28
2018-12-12T12:25:52.360Z,70.51
2018-12-12T12:28:19.552Z,70.40
2018-12-12T12:30:46.804Z,70.23
2018-12-12T12:33:14.009Z,71.01
2018-12-12T12:35:41.228Z,71.07
2018-12-12T12:38:08.609Z,70.94
2018-12-12T12:40:35.828Z,70.04
2018-12-12T12:43:03.060Z,71.17
2018-12-12T12:45:30.289Z,71.35
2018-12-12T12:47:57.616Z,72.16
2018-12-12T12:50:24.824Z,71.02
2018-12-12T12:52:52.064Z,71.90
2018-12-12T12:55:19.276Z,71.23
2018-12-12T12:57:46.525Z,70.96
2018-12-12T13:00:13.757Z,70.42
2018-12-12T13:02:40.983Z,69.72
2018-12-12T13:05:08.392Z,68.98
2018-12-12T13:07:35.596Z,69.34
2018-12-12T13:10:03.104Z,68.51
2018-12-12T13:12:30.444Z,68.12
2018-12-12T13:14:57.726Z,68.53
2018-12-12T13:17:24.960Z,69.27
2018-12-12T13:19:52.276Z,68.55
2018-12-12T13:22:19.608Z,68.99
2018-12-12T13:24:46.960Z,69.06
2018-12-12T13:27:14.360Z,69.05
2018-12-12T13:29:41.764Z,68.87
2018-12-12T13:32:10.005Z,68.95
2018-12-12T13:34:37.340Z,69.87
2018-12-12T13:37:04.556Z,69.14
2018-12-12T13:39:31.912Z,69.50
2018-12-12T13:42:01.230Z,69.98
2018-12-12T13:44:28.622Z,69.45
2018-12-12T13:46:56.221Z,69.37
2018-12-12T13:49:26.988Z,69.54
2018-12-12T13:51:54.194Z,69.37
2018-12-12T13:54:21.665Z,69.73
2018-12-12T13:56:48.867Z,68.66
2018-12-12T13:59:16.079Z,67.81
2018-12-12T14:01:43.309Z,68.34
2018-12-12T14:04:10.528Z,68.48
2018-12-12T14:06:37.850Z,67.52
2018-12-12T14:09:06.520Z,68.02
2018-12-12T14:11:35.798Z,68.85
2018-12-12T14:14:04.148Z,68.66
2018-12-12T14:16:31.523Z,68.78
2018-12-12T14:18:58.860Z,69.15
2018-12-12T14:21:26.113Z,69.88
2018-12-12T14:23:53.380Z,68.42
2018-12-12T14:26:20.757Z,68.58
2018-12-12T14:28:47.956Z,68.29
2018-12-12T14:31:16.264Z,69.07
2018-12-12T14:33:44.831Z,68.95
2018-12-12T14:36:15.621Z,69.51
2018-12-12T14:38:42.837Z,69.22
2018-12-12T14:41:10.064Z,70.03
2018-12-12T14:43:37.275Z,69.05
2018-12-12T14:46:04.624Z,69.35
2018-12-12T14:48:33.245Z,69.51
2018-12-12T14:51:00.468Z,70.12
2018-12-12T14:53:29.008Z,69.62
2018-12-12T14:55:56.240Z,69.11
2018-12-12T14:58:23.440Z,70.12
2018-12-12T15:00:50.655Z,69.92
2018-12-12T15:03:17.860Z,69.53
2018-12-12T15:05:45.109Z,69.75
2018-12-12T15:08:12.316Z,69.65
2018-12-12T15:10:39.540Z,69.95
2018-12-12T15:13:07.745Z,69.94
2018-12-12T15:15:34.952Z,69.51
2018-12-12T15:18:02.224Z,69.31
2018-12-12T15:20:29.552Z,71.00
2018-12-12T15:22:56.780Z,71.93
2018-12-12T15:25:25.534Z,72.62
2018-12-12T15:27:52.756Z,73.45
2018-12-12T15:30:19.980Z,73.17
2018-12-12T15:32:47.200Z,74.10
2018-12-12T15:35:14.396Z,74.80
2018-12-12T15:37:41.615Z,74.98
2018-12-12T15:40:08.833Z,75.08
2018-12-12T15:42:36.066Z,74.86
2018-12-12T15:45:03.828Z,74.87
2018-12-12T15:47:31.210Z,74.49
2018-12-12T15:49:58.421Z,74.67
2018-12-12T15:52:25.693Z,74.27
2018-12-12T15:54:52.921Z,74.04
2018-12-12T15:57:21.300Z,74.20
2018-12-12T15:59:48.548Z,73.99
2018-12-12T16:02:15.876Z,74.22
2018-12-12T16:04:48.764Z,74.50
2018-12-12T16:07:12.440Z,73.89
2018-12-12T16:09:40.868Z,74.40
2018-12-12T16:12:08.232Z,74.11
2018-12-12T16:14:35.608Z,74.26
2018-12-12T16:17:02.844Z,74.41
2018-12-12T16:19:30.218Z,74.13
2018-12-12T16:21:57.419Z,74.42
2018-12-12T16:24:24.734Z,73.92
2018-12-12T16:26:51.964Z,73.88
2018-12-12T16:29:19.249Z,73.98
2018-12-12T16:31:46.468Z,73.83
2018-12-12T16:34:13.837Z,73.58
2018-12-12T16:36:41.160Z,74.93
2018-12-12T16:39:08.356Z,74.10
2018-12-12T16:41:37.040Z,74.10
2018-12-12T16:44:04.292Z,74.69
2018-12-12T16:46:33.552Z,74.97
2018-12-12T16:49:00.808Z,75.24
2018-12-12T16:51:28.009Z,75.10
2018-12-12T16:53:55.212Z,75.40
2018-12-12T16:56:22.543Z,75.51
2018-12-12T16:58:49.765Z,76.37
2018-12-12T17:01:17.007Z,76.50
2018-12-12T17:03:44.236Z,76.99
2018-12-12T17:06:11.608Z,76.36
2018-12-12T17:08:38.816Z,75.81
2018-12-12T17:11:06.197Z,76.56
2018-12-12T17:13:33.424Z,76.98
2018-12-12T17:16:00.652Z,76.89
2018-12-12T17:18:28.077Z,77.84
2018-12-12T17:20:55.271Z,78.65
2018-12-12T17:23:22.476Z,79.02
2018-12-12T17:25:49.701Z,79.31
2018-12-12T17:28:16.920Z,79.58
2018-12-12T17:30:44.513Z,79.90
2018-12-12T17:33:11.784Z,79.95
2018-12-12T17:35:38.988Z,80.29
2018-12-12T17:38:06.267Z,80.30
2018-12-12T17:40:33.559Z,80.05
2018-12-12T17:43:00.881Z,79.86
2018-12-12T17:45:28.116Z,79.76
2018-12-12T17:47:55.504Z,80.35
2018-12-12T17:50:22.724Z,80.43
2018-12-12T17:52:49.945Z,79.91
2018-12-12T17:55:18.164Z,80.12
2018-12-12T17:57:45.492Z,79.82
2018-12-12T18:00:12.956Z,79.76
2018-12-12T18:02:42.208Z,80.02
2018-12-12T18:05:27.208Z,79.40
2018-12-12T18:07:54.652Z,79.64
2018-12-12T18:10:21.976Z,79.39
2018-12-12T18:12:49.299Z,79.51
2018-12-12T18:15:18.549Z,79.19
2018-12-12T18:17:47.767Z,79.08
2018-12-12T18:20:14.980Z,79.52
2018-12-12T18:22:42.548Z,80.11
2018-12-12T18:25:11.905Z,79.93
2018-12-12T18:27:40.245Z,80.04
2018-12-12T18:30:08.085Z,80.46
2018-12-12T18:32:38.404Z,80.21
2018-12-12T18:35:22.560Z,80.08
2018-12-12T18:37:49.909Z,79.87
2018-12-12T18:40:17.156Z,80.12
2018-12-12T18:42:46.408Z,80.19
2018-12-12T18:45:13.768Z,80.57
2018-12-12T18:47:41.109Z,81.20
2018-12-12T18:50:10.444Z,81.62
2018-12-12T18:52:39.673Z,82.78
2018-12-12T18:55:07.124Z,83.25
2018-12-12T18:57:36.360Z,82.93
2018-12-12T19:00:03.731Z,83.51
2018-12-12T19:02:32.888Z,84.26
2018-12-12T19:05:00.152Z,85.32
2018-12-12T19:07:27.382Z,84.49
2018-12-12T19:09:54.684Z,84.50
2018-12-12T19:12:22.905Z,85.20
2018-12-12T19:15:07.044Z,85.43
2018-12-12T19:17:34.380Z,84.39
2018-12-12T19:20:01.641Z,84.75
2018-12-12T19:22:30.211Z,83.89
2018-12-12T19:24:57.420Z,84.43
2018-12-12T19:27:24.649Z,85.23
2018-12-12T19:29:51.868Z,84.54
2018-12-12T19:32:19.095Z,85.75
2018-12-12T19:34:49.925Z,85.61
2018-12-12T19:37:16.853Z,85.89
2018-12-12T19:39:44.064Z,86.20
2018-12-12T19:42:12.396Z,86.05
2018-12-12T19:44:39.609Z,85.63
2018-12-12T19:47:06.824Z,85.30
2018-12-12T19:49:34.040Z,86.66
2018-12-12T19:52:02.265Z,85.79
2018-12-12T19:54:29.654Z,85.57
2018-12-12T19:56:56.854Z,85.78
2018-12-12T19:59:24.117Z,85.92
2018-12-12T20:01:51.363Z,84.51
2018-12-12T20:04:18.588Z,84.26
2018-12-12T20:06:45.855Z,84.24
2018-12-12T20:09:13.155Z,83.80
2018-12-12T20:11:40.536Z,83.95
2018-12-12T20:14:08.204Z,83.84
2018-12-12T20:16:37.441Z,83.30
2018-12-12T20:19:04.816Z,83.56
2018-12-12T20:21:32.164Z,83.54
2018-12-12T20:23:59.389Z,83.01
2018-12-12T20:26:27.892Z,82.65
2018-12-12T20:28:56.155Z,82.17
2018-12-12T20:31:23.388Z,82.75
2018-12-12T20:33:50.741Z,83.16
2018-12-12T20:36:19.633Z,82.75
2018-12-12T20:38:47.865Z,82.36
2018-12-12T20:41:15.496Z,82.88
2018-12-12T20:43:43.828Z,83.72
2018-12-12T20:46:11.368Z,83.67
2018-12-12T20:48:38.621Z,83.70
2018-12-12T20:51:05.973Z,83.44
2018-12-12T20:53:34.320Z,84.61
2018-12-12T20:56:01.708Z,84.03
2018-12-12T20:58:29.900Z,84.58
2018-12-12T21:00:57.260Z,84.79
2018-12-12T21:03:24.773Z,84.33
2018-12-12T21:05:54.695Z,84.52
2018-12-12T21:08:21.340Z,84.35
2018-12-12T21:10:48.756Z,83.82
2018-12-12T21:13:15.980Z,83.87
2018-12-12T21:15:47.108Z,82.70
2018-12-12T21:18:14.828Z,82.51
2018-12-12T21:20:43.219Z,81.61
2018-12-12T21:23:10.621Z,81.96
2018-12-12T21:25:38.388Z,81.68
2018-12-12T21:28:05.884Z,81.22
2018-12-12T21:30:33.132Z,81.12
2018-12-12T21:33:00.372Z,81.03
2018-12-12T21:35:27.609Z,80.59
2018-12-12T21:37:55.144Z,81.30
2018-12-12T21:40:22.433Z,81.18
2018-12-12T21:42:49.637Z,81.14
2018-12-12T21:45:16.844Z,80.20
2018-12-12T21:47:44.312Z,80.04
2018-12-12T21:50:11.663Z,80.41
2018-12-12T21:52:38.875Z,80.11
2018-12-12T21:55:06.150Z,80.98
2018-12-12T21:57:33.419Z,80.89
2018-12-12T22:00:00.665Z,80.59
2018-12-12T22:02:29.045Z,80.25
2018-12-12T22:04:56.412Z,80.73
2018-12-12T22:07:23.736Z,80.51
2018-12-12T22:09:51.112Z,81.19
2018-12-12T22:12:19.360Z,80.63
2018-12-12T22:14:46.732Z,80.81
2018-12-12T22:17:14.101Z,80.92
2018-12-12T22:19:41.324Z,80.85
2018-12-12T22:22:08.541Z,80.25
2018-12-12T22:24:35.877Z,79.81
2018-12-12T22:27:04.204Z,80.39
2018-12-12T22:29:31.428Z,79.86
2018-12-12T22:32:01.808Z,79.77
2018-12-12T22:34:29.045Z,79.11
2018-12-12T22:36:56.368Z,78.14
2018-12-12T22:39:23.638Z,78.46
2018-12-12T22:41:50.985Z,78.09
2018-12-12T22:44:18.200Z,78.14
2018-12-12T22:46:45.603Z,77.96
2018-12-12T22:49:12.972Z,77.11
2018-12-12T22:51:40.212Z,76.88
2018-12-12T22:54:07.684Z,75.97
2018-12-12T22:56:34.909Z,76.46
2018-12-12T22:59:02.124Z,76.40
2018-12-12T23:01:29.720Z,76.79
2018-12-12T23:03:57.093Z,76.21
2018-12-12T23:06:24.520Z,75.74
2018-12-12T23:08:51.810Z,76.51
2018-12-12T23:11:21.188Z,77.58
2018-12-12T23:13:48.457Z,78.76
2018-12-12T23:16:15.822Z,78.92
2018-12-12T23:18:43.424Z,78.51
2018-12-12T23:21:13.899Z,79.09
2018-12-12T23:23:41.140Z,79.54
2018-12-12T23:26:08.513Z,79.22
2018-12-12T23:28:35.744Z,79.04
2018-12-12T23:31:03.033Z,79.05
2018-12-12T23:33:30.277Z,78.43
2018-12-12T23:35:57.530Z,78.26
2018-12-12T23:38:24.761Z,78.41
2018-12-12T23:40:51.984Z,78.54
2018-12-12T23:43:19.201Z,78.15
2018-12-12T23:45:46.438Z,77.17
2018-12-12T23:48:14.688Z,77.43
2018-12-12T23:50:41.950Z,78.15
2018-12-12T23:53:09.208Z,76.85
2018-12-12T23:55:36.472Z,76.41
2018-12-12T23:58:03.701Z,76.31
